sensor_id;sensor_type;location;lat;lon;timestamp;P1;durP1;ratioP1;P2;durP2;ratioP2
75071;SDS011;63651;55.728;38.022;2023-07-20T00:02:45;2.22;;;1.30;;
75071;SDS011;63651;55.728;38.022;2023-07-20T00:07:46;3.17;;;1.00;;
75071;SDS011;63651;55.728;38.022;2023-07-20T00:12:47;1.77;;;0.80;;
75071;SDS011;63651;55.728;38.022;2023-07-20T00:17:49;3.22;;;0.93;;
75071;SDS011;63651;55.728;38.022;2023-07-20T00:22:50;2.05;;;0.80;;
75071;SDS011;63651;55.728;38.022;2023-07-20T00:27:55;2.50;;;1.27;;
75071;SDS011;63651;55.728;38.022;2023-07-20T00:32:56;2.92;;;1.00;;
75071;SDS011;63651;55.728;38.022;2023-07-20T00:37:58;4.07;;;1.20;;
75071;SDS011;63651;55.728;38.022;2023-07-20T00:42:59;1.90;;;1.10;;
75071;SDS011;63651;55.728;38.022;2023-07-20T00:48:04;2.47;;;0.80;;
75071;SDS011;63651;55.728;38.022;2023-07-20T00:53:06;3.08;;;0.90;;
75071;SDS011;63651;55.728;38.022;2023-07-20T00:58:08;2.10;;;0.95;;
75071;SDS011;63651;55.728;38.022;2023-07-20T01:03:09;2.50;;;0.75;;
75071;SDS011;63651;55.728;38.022;2023-07-20T01:08:12;2.80;;;1.10;;
75071;SDS011;63651;55.728;38.022;2023-07-20T01:13:18;4.47;;;1.00;;
75071;SDS011;63651;55.728;38.022;2023-07-20T01:18:22;2.35;;;1.23;;
75071;SDS011;63651;55.728;38.022;2023-07-20T01:33:54;3.33;;;1.00;;
75071;SDS011;63651;55.728;38.022;2023-07-20T01:38:57;1.77;;;0.82;;
75071;SDS011;63651;55.728;38.022;2023-07-20T01:43:59;1.60;;;0.90;;
75071;SDS011;63651;55.728;38.022;2023-07-20T01:49:00;1.50;;;0.82;;
75071;SDS011;63651;55.728;38.022;2023-07-20T01:54:01;1.42;;;0.70;;
75071;SDS011;63651;55.728;38.022;2023-07-20T01:59:02;2.78;;;0.85;;
75071;SDS011;63651;55.728;38.022;2023-07-20T02:04:03;1.65;;;0.80;;
75071;SDS011;63651;55.728;38.022;2023-07-20T02:09:04;3.58;;;1.20;;
75071;SDS011;63651;55.728;38.022;2023-07-20T02:14:05;3.65;;;0.70;;
75071;SDS011;63651;55.728;38.022;2023-07-20T02:19:06;3.40;;;1.08;;
75071;SDS011;63651;55.728;38.022;2023-07-20T02:24:07;4.22;;;0.90;;
75071;SDS011;63651;55.728;38.022;2023-07-20T02:29:08;2.28;;;0.65;;
75071;SDS011;63651;55.728;38.022;2023-07-20T02:34:12;2.70;;;0.70;;
75071;SDS011;63651;55.728;38.022;2023-07-20T02:39:14;2.08;;;1.00;;
75071;SDS011;63651;55.728;38.022;2023-07-20T02:44:15;3.35;;;1.15;;
75071;SDS011;63651;55.728;38.022;2023-07-20T02:49:16;3.42;;;0.95;;
75071;SDS011;63651;55.728;38.022;2023-07-20T02:54:17;2.47;;;0.90;;
75071;SDS011;63651;55.728;38.022;2023-07-20T02:59:18;3.83;;;1.00;;
75071;SDS011;63651;55.728;38.022;2023-07-20T03:04:19;1.65;;;0.70;;
75071;SDS011;63651;55.728;38.022;2023-07-20T03:09:20;3.40;;;1.00;;
75071;SDS011;63651;55.728;38.022;2023-07-20T03:14:22;2.78;;;1.08;;
75071;SDS011;63651;55.728;38.022;2023-07-20T03:19:24;2.95;;;1.33;;
75071;SDS011;63651;55.728;38.022;2023-07-20T03:24:25;3.00;;;0.95;;
75071;SDS011;63651;55.728;38.022;2023-07-20T03:29:26;2.00;;;1.00;;
75071;SDS011;63651;55.728;38.022;2023-07-20T03:34:27;2.85;;;0.95;;
75071;SDS011;63651;55.728;38.022;2023-07-20T03:39:28;3.53;;;0.90;;
75071;SDS011;63651;55.728;38.022;2023-07-20T03:44:29;3.75;;;1.20;;
75071;SDS011;63651;55.728;38.022;2023-07-20T03:49:31;2.90;;;1.00;;
75071;SDS011;63651;55.728;38.022;2023-07-20T03:54:32;3.00;;;0.73;;
75071;SDS011;63651;55.728;38.022;2023-07-20T03:59:33;2.60;;;1.05;;
75071;SDS011;63651;55.728;38.022;2023-07-20T04:04:34;2.85;;;0.80;;
75071;SDS011;63651;55.728;38.022;2023-07-20T04:09:35;3.13;;;1.45;;
75071;SDS011;63651;55.728;38.022;2023-07-20T04:14:36;2.15;;;0.70;;
75071;SDS011;63651;55.728;38.022;2023-07-20T04:19:37;4.18;;;1.02;;
75071;SDS011;63651;55.728;38.022;2023-07-20T04:24:38;3.72;;;1.10;;
75071;SDS011;63651;55.728;38.022;2023-07-20T04:29:39;1.30;;;0.80;;
75071;SDS011;63651;55.728;38.022;2023-07-20T04:34:41;1.92;;;0.88;;
75071;SDS011;63651;55.728;38.022;2023-07-20T04:39:42;4.15;;;1.70;;
75071;SDS011;63651;55.728;38.022;2023-07-20T04:44:42;2.95;;;1.10;;
75071;SDS011;63651;55.728;38.022;2023-07-20T04:49:44;2.85;;;1.10;;
75071;SDS011;63651;55.728;38.022;2023-07-20T04:54:45;2.65;;;1.13;;
75071;SDS011;63651;55.728;38.022;2023-07-20T04:59:46;3.42;;;0.93;;
75071;SDS011;63651;55.728;38.022;2023-07-20T05:04:47;2.33;;;0.75;;
75071;SDS011;63651;55.728;38.022;2023-07-20T05:09:48;2.28;;;0.88;;
75071;SDS011;63651;55.728;38.022;2023-07-20T05:14:49;2.90;;;1.10;;
75071;SDS011;63651;55.728;38.022;2023-07-20T05:19:50;3.03;;;1.00;;
75071;SDS011;63651;55.728;38.022;2023-07-20T05:24:51;6.53;;;1.90;;
75071;SDS011;63651;55.728;38.022;2023-07-20T05:29:52;4.28;;;1.30;;
75071;SDS011;63651;55.728;38.022;2023-07-20T05:34:53;2.42;;;1.13;;
75071;SDS011;63651;55.728;38.022;2023-07-20T05:39:55;4.55;;;1.85;;
75071;SDS011;63651;55.728;38.022;2023-07-20T05:44:57;3.08;;;2.78;;
75071;SDS011;63651;55.728;38.022;2023-07-20T05:49:58;2.75;;;1.20;;
75071;SDS011;63651;55.728;38.022;2023-07-20T05:54:59;4.65;;;2.22;;
75071;SDS011;63651;55.728;38.022;2023-07-20T06:00:00;4.22;;;3.17;;
75071;SDS011;63651;55.728;38.022;2023-07-20T06:05:01;2.95;;;2.30;;
75071;SDS011;63651;55.728;38.022;2023-07-20T06:10:03;1.70;;;1.00;;
75071;SDS011;63651;55.728;38.022;2023-07-20T06:15:12;2.78;;;0.93;;
75071;SDS011;63651;55.728;38.022;2023-07-20T06:20:25;4.70;;;2.15;;
75071;SDS011;63651;55.728;38.022;2023-07-20T06:25:27;3.38;;;2.40;;
75071;SDS011;63651;55.728;38.022;2023-07-20T06:30:29;4.47;;;2.53;;
75071;SDS011;63651;55.728;38.022;2023-07-20T06:35:30;3.38;;;1.05;;
75071;SDS011;63651;55.728;38.022;2023-07-20T06:40:31;2.47;;;1.10;;
75071;SDS011;63651;55.728;38.022;2023-07-20T06:45:32;2.67;;;1.30;;
75071;SDS011;63651;55.728;38.022;2023-07-20T06:50:33;2.72;;;1.10;;
75071;SDS011;63651;55.728;38.022;2023-07-20T06:55:34;1.90;;;0.80;;
75071;SDS011;63651;55.728;38.022;2023-07-20T07:00:35;2.20;;;1.00;;
75071;SDS011;63651;55.728;38.022;2023-07-20T07:05:36;1.20;;;0.90;;
75071;SDS011;63651;55.728;38.022;2023-07-20T07:10:38;2.47;;;0.90;;
75071;SDS011;63651;55.728;38.022;2023-07-20T07:15:39;2.17;;;0.73;;
75071;SDS011;63651;55.728;38.022;2023-07-20T07:20:40;2.88;;;0.63;;
75071;SDS011;63651;55.728;38.022;2023-07-20T07:25:41;1.85;;;0.85;;
75071;SDS011;63651;55.728;38.022;2023-07-20T07:30:42;2.05;;;0.80;;
75071;SDS011;63651;55.728;38.022;2023-07-20T07:35:43;2.63;;;0.70;;
75071;SDS011;63651;55.728;38.022;2023-07-20T07:40:44;1.42;;;0.70;;
75071;SDS011;63651;55.728;38.022;2023-07-20T07:45:46;1.65;;;0.65;;
75071;SDS011;63651;55.728;38.022;2023-07-20T07:50:47;2.33;;;0.93;;
75071;SDS011;63651;55.728;38.022;2023-07-20T07:55:50;1.83;;;0.60;;
75071;SDS011;63651;55.728;38.022;2023-07-20T08:00:51;1.83;;;0.70;;
75071;SDS011;63651;55.728;38.022;2023-07-20T08:05:55;2.28;;;0.75;;
75071;SDS011;63651;55.728;38.022;2023-07-20T08:10:56;2.28;;;0.60;;
75071;SDS011;63651;55.728;38.022;2023-07-20T08:15:58;2.25;;;0.55;;
75071;SDS011;63651;55.728;38.022;2023-07-20T08:20:59;5.28;;;1.30;;
75071;SDS011;63651;55.728;38.022;2023-07-20T08:26:00;2.50;;;0.73;;
75071;SDS011;63651;55.728;38.022;2023-07-20T08:31:01;1.83;;;0.85;;
75071;SDS011;63651;55.728;38.022;2023-07-20T08:36:03;1.48;;;0.50;;
75071;SDS011;63651;55.728;38.022;2023-07-20T08:41:04;3.50;;;0.60;;
75071;SDS011;63651;55.728;38.022;2023-07-20T08:46:05;2.50;;;0.82;;
75071;SDS011;63651;55.728;38.022;2023-07-20T08:51:06;1.55;;;0.90;;
75071;SDS011;63651;55.728;38.022;2023-07-20T08:56:07;3.97;;;2.25;;
75071;SDS011;63651;55.728;38.022;2023-07-20T09:01:11;6.88;;;2.13;;
75071;SDS011;63651;55.728;38.022;2023-07-20T09:06:14;2.17;;;0.80;;
75071;SDS011;63651;55.728;38.022;2023-07-20T09:11:15;2.00;;;0.80;;
75071;SDS011;63651;55.728;38.022;2023-07-20T09:16:16;2.58;;;0.98;;
75071;SDS011;63651;55.728;38.022;2023-07-20T09:21:17;3.22;;;1.05;;
75071;SDS011;63651;55.728;38.022;2023-07-20T09:26:19;2.70;;;0.82;;
75071;SDS011;63651;55.728;38.022;2023-07-20T09:31:20;1.73;;;0.70;;
75071;SDS011;63651;55.728;38.022;2023-07-20T09:36:22;4.38;;;2.20;;
75071;SDS011;63651;55.728;38.022;2023-07-20T09:41:24;4.25;;;2.63;;
75071;SDS011;63651;55.728;38.022;2023-07-20T09:46:40;8.18;;;6.60;;
75071;SDS011;63651;55.728;38.022;2023-07-20T09:51:42;3.72;;;2.67;;
75071;SDS011;63651;55.728;38.022;2023-07-20T09:56:45;2.83;;;1.27;;
75071;SDS011;63651;55.728;38.022;2023-07-20T10:01:49;5.93;;;2.80;;
75071;SDS011;63651;55.728;38.022;2023-07-20T10:06:54;3.88;;;1.42;;
75071;SDS011;63651;55.728;38.022;2023-07-20T10:11:59;6.70;;;5.38;;
75071;SDS011;63651;55.728;38.022;2023-07-20T10:17:00;4.30;;;2.25;;
75071;SDS011;63651;55.728;38.022;2023-07-20T10:22:07;4.43;;;1.67;;
75071;SDS011;63651;55.728;38.022;2023-07-20T10:27:14;3.55;;;1.33;;
75071;SDS011;63651;55.728;38.022;2023-07-20T10:32:15;2.78;;;1.70;;
75071;SDS011;63651;55.728;38.022;2023-07-20T10:43:02;2.20;;;0.85;;
75071;SDS011;63651;55.728;38.022;2023-07-20T10:48:13;2.42;;;1.40;;
75071;SDS011;63651;55.728;38.022;2023-07-20T10:53:17;3.53;;;1.10;;
75071;SDS011;63651;55.728;38.022;2023-07-20T10:58:19;4.03;;;1.10;;
75071;SDS011;63651;55.728;38.022;2023-07-20T11:03:30;1.90;;;1.00;;
75071;SDS011;63651;55.728;38.022;2023-07-20T11:08:38;2.42;;;0.90;;
75071;SDS011;63651;55.728;38.022;2023-07-20T11:14:05;3.97;;;1.90;;
75071;SDS011;63651;55.728;38.022;2023-07-20T11:19:25;2.10;;;1.60;;
75071;SDS011;63651;55.728;38.022;2023-07-20T11:24:27;4.13;;;2.50;;
75071;SDS011;63651;55.728;38.022;2023-07-20T11:29:28;2.10;;;1.77;;
75071;SDS011;63651;55.728;38.022;2023-07-20T11:34:30;2.20;;;1.60;;
75071;SDS011;63651;55.728;38.022;2023-07-20T11:39:31;2.85;;;1.45;;
75071;SDS011;63651;55.728;38.022;2023-07-20T11:44:33;5.28;;;1.80;;
75071;SDS011;63651;55.728;38.022;2023-07-20T11:49:35;4.82;;;2.10;;
75071;SDS011;63651;55.728;38.022;2023-07-20T11:54:41;2.70;;;1.38;;
75071;SDS011;63651;55.728;38.022;2023-07-20T12:00:02;3.30;;;1.33;;
75071;SDS011;63651;55.728;38.022;2023-07-20T12:05:09;3.45;;;1.52;;
75071;SDS011;63651;55.728;38.022;2023-07-20T12:10:12;2.97;;;1.00;;
75071;SDS011;63651;55.728;38.022;2023-07-20T12:15:17;3.88;;;1.58;;
75071;SDS011;63651;55.728;38.022;2023-07-20T12:20:24;3.88;;;1.67;;
75071;SDS011;63651;55.728;38.022;2023-07-20T12:25:59;2.90;;;1.50;;
75071;SDS011;63651;55.728;38.022;2023-07-20T12:30:54;2.53;;;1.17;;
75071;SDS011;63651;55.728;38.022;2023-07-20T12:35:59;4.15;;;1.27;;
75071;SDS011;63651;55.728;38.022;2023-07-20T12:41:01;4.00;;;1.50;;
75071;SDS011;63651;55.728;38.022;2023-07-20T12:46:03;3.17;;;1.60;;
75071;SDS011;63651;55.728;38.022;2023-07-20T12:51:05;3.13;;;1.67;;
75071;SDS011;63651;55.728;38.022;2023-07-20T12:56:06;3.13;;;1.75;;
75071;SDS011;63651;55.728;38.022;2023-07-20T13:01:07;3.80;;;1.38;;
75071;SDS011;63651;55.728;38.022;2023-07-20T13:06:08;4.53;;;1.42;;
75071;SDS011;63651;55.728;38.022;2023-07-20T13:11:09;3.35;;;1.30;;
75071;SDS011;63651;55.728;38.022;2023-07-20T13:16:10;4.45;;;1.30;;
75071;SDS011;63651;55.728;38.022;2023-07-20T13:21:12;2.65;;;1.50;;
75071;SDS011;63651;55.728;38.022;2023-07-20T13:26:13;4.38;;;2.50;;
75071;SDS011;63651;55.728;38.022;2023-07-20T13:31:15;6.07;;;3.70;;
75071;SDS011;63651;55.728;38.022;2023-07-20T13:36:18;7.70;;;4.70;;
75071;SDS011;63651;55.728;38.022;2023-07-20T13:41:19;5.85;;;3.88;;
75071;SDS011;63651;55.728;38.022;2023-07-20T13:46:20;7.30;;;3.53;;
75071;SDS011;63651;55.728;38.022;2023-07-20T13:51:21;6.20;;;3.13;;
75071;SDS011;63651;55.728;38.022;2023-07-20T13:56:22;5.82;;;3.03;;
75071;SDS011;63651;55.728;38.022;2023-07-20T14:01:23;3.38;;;2.30;;
75071;SDS011;63651;55.728;38.022;2023-07-20T14:06:25;4.03;;;2.38;;
75071;SDS011;63651;55.728;38.022;2023-07-20T14:11:26;3.67;;;2.20;;
75071;SDS011;63651;55.728;38.022;2023-07-20T14:16:28;3.85;;;2.72;;
75071;SDS011;63651;55.728;38.022;2023-07-20T14:21:29;5.88;;;2.75;;
75071;SDS011;63651;55.728;38.022;2023-07-20T14:26:31;3.85;;;2.10;;
75071;SDS011;63651;55.728;38.022;2023-07-20T14:31:32;3.20;;;2.00;;
75071;SDS011;63651;55.728;38.022;2023-07-20T14:36:33;5.85;;;2.40;;
75071;SDS011;63651;55.728;38.022;2023-07-20T14:41:34;3.50;;;1.75;;
75071;SDS011;63651;55.728;38.022;2023-07-20T14:46:35;4.00;;;1.73;;
75071;SDS011;63651;55.728;38.022;2023-07-20T14:51:36;2.22;;;1.58;;
75071;SDS011;63651;55.728;38.022;2023-07-20T14:56:50;4.78;;;1.90;;
75071;SDS011;63651;55.728;38.022;2023-07-20T15:01:54;1.60;;;1.23;;
75071;SDS011;63651;55.728;38.022;2023-07-20T15:06:56;4.10;;;2.72;;
75071;SDS011;63651;55.728;38.022;2023-07-20T15:11:57;4.97;;;2.47;;
75071;SDS011;63651;55.728;38.022;2023-07-20T15:16:58;3.90;;;2.55;;
75071;SDS011;63651;55.728;38.022;2023-07-20T15:21:59;4.28;;;2.20;;
75071;SDS011;63651;55.728;38.022;2023-07-20T15:27:00;4.57;;;2.35;;
75071;SDS011;63651;55.728;38.022;2023-07-20T15:32:03;5.70;;;2.42;;
75071;SDS011;63651;55.728;38.022;2023-07-20T15:37:04;5.53;;;3.10;;
75071;SDS011;63651;55.728;38.022;2023-07-20T15:42:06;5.00;;;2.72;;
75071;SDS011;63651;55.728;38.022;2023-07-20T15:47:07;4.00;;;2.08;;
75071;SDS011;63651;55.728;38.022;2023-07-20T15:52:08;3.95;;;1.90;;
75071;SDS011;63651;55.728;38.022;2023-07-20T15:57:11;2.60;;;1.40;;
75071;SDS011;63651;55.728;38.022;2023-07-20T16:02:12;3.67;;;1.33;;
75071;SDS011;63651;55.728;38.022;2023-07-20T16:07:14;3.67;;;1.38;;
75071;SDS011;63651;55.728;38.022;2023-07-20T16:12:15;2.67;;;1.30;;
75071;SDS011;63651;55.728;38.022;2023-07-20T16:17:16;3.03;;;1.48;;
75071;SDS011;63651;55.728;38.022;2023-07-20T16:22:18;2.47;;;1.35;;
75071;SDS011;63651;55.728;38.022;2023-07-20T16:27:19;2.80;;;1.30;;
75071;SDS011;63651;55.728;38.022;2023-07-20T16:32:20;3.67;;;1.50;;
75071;SDS011;63651;55.728;38.022;2023-07-20T16:37:21;2.88;;;1.70;;
75071;SDS011;63651;55.728;38.022;2023-07-20T16:42:23;4.65;;;2.20;;
75071;SDS011;63651;55.728;38.022;2023-07-20T16:47:24;6.72;;;2.80;;
75071;SDS011;63651;55.728;38.022;2023-07-20T16:52:26;5.30;;;2.45;;
75071;SDS011;63651;55.728;38.022;2023-07-20T16:57:28;4.45;;;2.50;;
75071;SDS011;63651;55.728;38.022;2023-07-20T17:02:29;2.25;;;1.70;;
75071;SDS011;63651;55.728;38.022;2023-07-20T17:07:30;3.50;;;1.77;;
75071;SDS011;63651;55.728;38.022;2023-07-20T17:12:31;5.68;;;1.80;;
75071;SDS011;63651;55.728;38.022;2023-07-20T17:17:33;3.15;;;1.52;;
75071;SDS011;63651;55.728;38.022;2023-07-20T17:22:34;5.18;;;1.80;;
75071;SDS011;63651;55.728;38.022;2023-07-20T17:27:35;5.18;;;1.52;;
75071;SDS011;63651;55.728;38.022;2023-07-20T17:32:36;3.95;;;1.33;;
75071;SDS011;63651;55.728;38.022;2023-07-20T17:37:37;1.73;;;1.33;;
75071;SDS011;63651;55.728;38.022;2023-07-20T17:42:40;3.28;;;1.85;;
75071;SDS011;63651;55.728;38.022;2023-07-20T17:47:41;3.28;;;1.30;;
75071;SDS011;63651;55.728;38.022;2023-07-20T17:52:42;3.45;;;1.30;;
75071;SDS011;63651;55.728;38.022;2023-07-20T17:57:43;2.58;;;1.42;;
75071;SDS011;63651;55.728;38.022;2023-07-20T18:02:44;2.35;;;1.27;;
75071;SDS011;63651;55.728;38.022;2023-07-20T18:07:45;3.88;;;1.50;;
75071;SDS011;63651;55.728;38.022;2023-07-20T18:12:47;2.15;;;1.33;;
75071;SDS011;63651;55.728;38.022;2023-07-20T18:17:48;6.78;;;1.45;;
75071;SDS011;63651;55.728;38.022;2023-07-20T18:22:49;2.20;;;1.60;;
75071;SDS011;63651;55.728;38.022;2023-07-20T18:27:50;5.15;;;1.70;;
75071;SDS011;63651;55.728;38.022;2023-07-20T18:32:51;2.35;;;1.60;;
75071;SDS011;63651;55.728;38.022;2023-07-20T18:37:52;3.75;;;1.40;;
75071;SDS011;63651;55.728;38.022;2023-07-20T18:42:53;3.70;;;1.50;;
75071;SDS011;63651;55.728;38.022;2023-07-20T18:47:54;3.55;;;1.60;;
75071;SDS011;63651;55.728;38.022;2023-07-20T18:52:55;4.75;;;1.77;;
75071;SDS011;63651;55.728;38.022;2023-07-20T18:57:57;3.15;;;1.13;;
75071;SDS011;63651;55.728;38.022;2023-07-20T19:02:59;3.90;;;1.50;;
75071;SDS011;63651;55.728;38.022;2023-07-20T19:08:00;3.70;;;1.90;;
75071;SDS011;63651;55.728;38.022;2023-07-20T19:13:03;4.38;;;2.03;;
75071;SDS011;63651;55.728;38.022;2023-07-20T19:18:04;4.60;;;1.60;;
75071;SDS011;63651;55.728;38.022;2023-07-20T19:23:05;2.53;;;1.70;;
75071;SDS011;63651;55.728;38.022;2023-07-20T19:28:06;3.17;;;1.50;;
75071;SDS011;63651;55.728;38.022;2023-07-20T19:33:07;2.85;;;1.65;;
75071;SDS011;63651;55.728;38.022;2023-07-20T19:38:09;2.88;;;1.33;;
75071;SDS011;63651;55.728;38.022;2023-07-20T19:43:11;3.85;;;1.67;;
75071;SDS011;63651;55.728;38.022;2023-07-20T19:48:15;4.88;;;1.50;;
75071;SDS011;63651;55.728;38.022;2023-07-20T19:53:22;3.65;;;1.45;;
75071;SDS011;63651;55.728;38.022;2023-07-20T19:58:24;3.75;;;2.00;;
75071;SDS011;63651;55.728;38.022;2023-07-20T20:03:25;3.80;;;1.75;;
75071;SDS011;63651;55.728;38.022;2023-07-20T20:08:26;4.72;;;1.73;;
75071;SDS011;63651;55.728;38.022;2023-07-20T20:13:27;5.55;;;2.47;;
75071;SDS011;63651;55.728;38.022;2023-07-20T20:18:28;3.30;;;1.90;;
75071;SDS011;63651;55.728;38.022;2023-07-20T20:23:29;2.85;;;2.17;;
75071;SDS011;63651;55.728;38.022;2023-07-20T20:28:30;4.13;;;2.25;;
75071;SDS011;63651;55.728;38.022;2023-07-20T20:33:31;3.35;;;2.10;;
75071;SDS011;63651;55.728;38.022;2023-07-20T20:38:36;8.25;;;2.17;;
75071;SDS011;63651;55.728;38.022;2023-07-20T20:43:37;4.20;;;2.28;;
75071;SDS011;63651;55.728;38.022;2023-07-20T20:48:41;4.13;;;2.25;;
75071;SDS011;63651;55.728;38.022;2023-07-20T20:53:45;4.38;;;2.70;;
75071;SDS011;63651;55.728;38.022;2023-07-20T20:58:46;4.88;;;2.90;;
75071;SDS011;63651;55.728;38.022;2023-07-20T21:03:50;9.32;;;2.83;;
75071;SDS011;63651;55.728;38.022;2023-07-20T21:08:51;6.57;;;3.03;;
75071;SDS011;63651;55.728;38.022;2023-07-20T21:13:52;8.55;;;3.58;;
75071;SDS011;63651;55.728;38.022;2023-07-20T21:18:53;4.95;;;2.70;;
75071;SDS011;63651;55.728;38.022;2023-07-20T21:23:54;6.72;;;2.75;;
75071;SDS011;63651;55.728;38.022;2023-07-20T21:28:56;5.90;;;2.72;;
75071;SDS011;63651;55.728;38.022;2023-07-20T21:33:57;6.88;;;3.20;;
75071;SDS011;63651;55.728;38.022;2023-07-20T21:38:58;6.75;;;2.92;;
75071;SDS011;63651;55.728;38.022;2023-07-20T21:43:59;5.43;;;2.92;;
75071;SDS011;63651;55.728;38.022;2023-07-20T21:49:00;6.43;;;3.30;;
75071;SDS011;63651;55.728;38.022;2023-07-20T21:54:01;7.30;;;3.15;;
75071;SDS011;63651;55.728;38.022;2023-07-20T21:59:02;7.75;;;3.75;;
75071;SDS011;63651;55.728;38.022;2023-07-20T22:04:03;9.82;;;4.88;;
75071;SDS011;63651;55.728;38.022;2023-07-20T22:09:04;7.72;;;4.57;;
75071;SDS011;63651;55.728;38.022;2023-07-20T22:14:05;7.28;;;4.70;;
75071;SDS011;63651;55.728;38.022;2023-07-20T22:19:07;7.78;;;4.63;;
75071;SDS011;63651;55.728;38.022;2023-07-20T22:24:08;8.57;;;4.18;;
75071;SDS011;63651;55.728;38.022;2023-07-20T22:29:09;7.72;;;3.97;;
75071;SDS011;63651;55.728;38.022;2023-07-20T22:34:10;7.43;;;3.65;;
75071;SDS011;63651;55.728;38.022;2023-07-20T22:39:11;6.65;;;3.78;;
75071;SDS011;63651;55.728;38.022;2023-07-20T22:44:12;7.82;;;3.30;;
75071;SDS011;63651;55.728;38.022;2023-07-20T22:49:13;7.53;;;3.55;;
75071;SDS011;63651;55.728;38.022;2023-07-20T22:54:14;6.43;;;3.50;;
75071;SDS011;63651;55.728;38.022;2023-07-20T22:59:15;6.28;;;3.03;;
75071;SDS011;63651;55.728;38.022;2023-07-20T23:04:16;6.45;;;3.45;;
75071;SDS011;63651;55.728;38.022;2023-07-20T23:09:18;5.63;;;3.28;;
75071;SDS011;63651;55.728;38.022;2023-07-20T23:14:19;6.40;;;3.25;;
75071;SDS011;63651;55.728;38.022;2023-07-20T23:19:20;5.10;;;2.83;;
75071;SDS011;63651;55.728;38.022;2023-07-20T23:24:21;6.75;;;2.83;;
75071;SDS011;63651;55.728;38.022;2023-07-20T23:29:23;4.78;;;2.80;;
75071;SDS011;63651;55.728;38.022;2023-07-20T23:34:24;4.22;;;2.63;;
75071;SDS011;63651;55.728;38.022;2023-07-20T23:39:25;4.05;;;2.00;;
75071;SDS011;63651;55.728;38.022;2023-07-20T23:44:26;4.90;;;2.70;;
75071;SDS011;63651;55.728;38.022;2023-07-20T23:49:28;4.65;;;2.50;;
75071;SDS011;63651;55.728;38.022;2023-07-20T23:54:29;2.95;;;2.28;;
75071;SDS011;63651;55.728;38.022;2023-07-20T23:59:31;6.25;;;2.67;;
